createdAt,value
2019-05-29T00:00:12.916Z,849.96
2019-05-29T00:01:17.836Z,850.00
2019-05-29T00:02:12.325Z,850.02
2019-05-29T00:03:12.438Z,850.01
2019-05-29T00:04:12.370Z,850.01
2019-05-29T00:05:12.222Z,849.98
2019-05-29T00:06:12.422Z,850.04
2019-05-29T00:07:12.194Z,850.02
2019-05-29T00:08:12.285Z,850.04
2019-05-29T00:09:12.173Z,849.99
2019-05-29T00:10:12.250Z,849.98
2019-05-29T00:11:12.238Z,850.00
2019-05-29T00:12:15.140Z,850.01
2019-05-29T00:13:12.398Z,850.02
2019-05-29T00:14:22.924Z,850.05
2019-05-29T00:15:12.493Z,850.00
2019-05-29T00:16:12.379Z,850.07
2019-05-29T00:17:12.490Z,850.05
2019-05-29T00:18:12.400Z,850.01
2019-05-29T00:19:12.622Z,850.04
2019-05-29T00:20:12.324Z,850.05
2019-05-29T00:21:11.716Z,850.05
2019-05-29T00:22:12.323Z,849.99
2019-05-29T00:23:11.103Z,850.08
2019-05-29T00:24:11.080Z,850.05
2019-05-29T00:25:11.154Z,850.09
2019-05-29T00:26:11.052Z,850.04
2019-05-29T00:27:12.919Z,850.06
2019-05-29T00:28:11.038Z,850.07
2019-05-29T00:29:11.791Z,850.10
2019-05-29T00:30:11.018Z,850.09
2019-05-29T00:31:12.202Z,850.02
2019-05-29T00:32:11.902Z,850.09
2019-05-29T00:33:11.913Z,850.09
2019-05-29T00:34:11.093Z,850.07
2019-05-29T00:35:12.168Z,850.07
2019-05-29T00:36:10.959Z,850.06
2019-05-29T00:37:10.980Z,850.07
2019-05-29T00:38:10.916Z,850.04
2019-05-29T00:39:10.947Z,850.11
2019-05-29T00:40:10.991Z,850.08
2019-05-29T00:41:10.886Z,850.13
2019-05-29T00:42:11.123Z,850.09
2019-05-29T00:43:11.173Z,850.09
2019-05-29T00:44:11.152Z,850.08
2019-05-29T00:45:11.486Z,850.11
2019-05-29T00:46:11.383Z,850.12
2019-05-29T00:47:11.563Z,850.09
2019-05-29T00:48:11.645Z,850.05
2019-05-29T00:49:11.770Z,850.12
2019-05-29T00:50:12.281Z,850.06
2019-05-29T00:51:10.983Z,850.08
2019-05-29T00:52:10.770Z,850.07
2019-05-29T00:53:10.811Z,850.11
2019-05-29T00:54:10.793Z,850.11
2019-05-29T00:55:10.736Z,850.16
2019-05-29T00:56:12.902Z,850.10
2019-05-29T00:57:10.919Z,850.13
2019-05-29T00:58:10.790Z,850.11
2019-05-29T00:59:11.085Z,850.13
2019-05-29T01:00:11.184Z,850.09
2019-05-29T01:01:11.445Z,850.14
2019-05-29T01:02:11.918Z,850.17
2019-05-29T01:03:11.616Z,850.16
2019-05-29T01:04:11.523Z,850.15
2019-05-29T01:05:11.894Z,850.14
2019-05-29T01:06:11.940Z,850.14
2019-05-29T01:07:10.608Z,850.13
2019-05-29T01:08:10.702Z,850.12
2019-05-29T01:09:10.597Z,850.13
2019-05-29T01:10:10.676Z,850.12
2019-05-29T01:11:10.656Z,850.14
2019-05-29T01:12:10.826Z,850.16
2019-05-29T01:13:11.004Z,850.18
2019-05-29T01:14:11.047Z,850.18
2019-05-29T01:15:11.196Z,850.17
2019-05-29T01:16:11.318Z,850.15
2019-05-29T01:17:12.174Z,850.16
2019-05-29T01:18:11.659Z,850.18
2019-05-29T01:19:11.840Z,850.20
2019-05-29T01:20:11.840Z,850.20
2019-05-29T01:21:10.454Z,850.17
2019-05-29T01:22:10.503Z,850.18
2019-05-29T01:23:10.434Z,850.18
2019-05-29T01:24:10.414Z,850.20
2019-05-29T01:25:10.412Z,850.16
2019-05-29T01:26:10.458Z,850.20
2019-05-29T01:27:10.383Z,850.17
2019-05-29T01:28:10.416Z,850.19
2019-05-29T01:29:10.371Z,850.20
2019-05-29T01:30:10.364Z,850.21
2019-05-29T01:31:10.345Z,850.23
2019-05-29T01:32:10.342Z,850.22
2019-05-29T01:33:10.371Z,850.18
2019-05-29T01:34:10.354Z,850.21
2019-05-29T01:35:17.841Z,850.23
2019-05-29T01:36:10.304Z,850.22
2019-05-29T01:37:10.296Z,850.18
2019-05-29T01:38:10.269Z,850.19
2019-05-29T01:39:10.262Z,850.18
2019-05-29T01:40:21.006Z,850.19
2019-05-29T01:41:11.229Z,850.24
2019-05-29T01:42:10.231Z,850.20
2019-05-29T01:43:10.208Z,850.16
2019-05-29T01:44:10.197Z,850.20
2019-05-29T01:45:10.189Z,850.19
2019-05-29T01:46:10.219Z,850.21
2019-05-29T01:47:10.167Z,850.18
2019-05-29T01:48:10.164Z,850.21
2019-05-29T01:49:10.158Z,850.18
2019-05-29T01:50:10.142Z,850.22
2019-05-29T01:51:10.127Z,850.21
2019-05-29T01:52:10.155Z,850.22
2019-05-29T01:53:10.104Z,850.24
2019-05-29T01:54:10.094Z,850.25
2019-05-29T01:55:10.090Z,850.27
2019-05-29T01:56:10.086Z,850.28
2019-05-29T01:57:10.103Z,850.26
2019-05-29T01:58:10.055Z,850.26
2019-05-29T01:59:10.035Z,850.26
2019-05-29T02:00:10.024Z,850.25
2019-05-29T02:01:10.061Z,850.28
2019-05-29T02:02:10.036Z,850.26
2019-05-29T02:03:09.991Z,850.25
2019-05-29T02:04:09.993Z,850.28
2019-05-29T02:05:09.970Z,850.27
2019-05-29T02:06:09.961Z,850.28
2019-05-29T02:07:10.011Z,850.25
2019-05-29T02:08:09.950Z,850.25
2019-05-29T02:09:09.951Z,850.32
2019-05-29T02:10:09.928Z,850.27
2019-05-29T02:11:09.912Z,850.28
2019-05-29T02:12:09.916Z,850.30
2019-05-29T02:13:09.997Z,850.27
2019-05-29T02:14:09.879Z,850.30
2019-05-29T02:15:22.962Z,850.30
2019-05-29T02:16:10.869Z,850.31
2019-05-29T02:17:09.840Z,850.31
2019-05-29T02:18:09.896Z,850.32
2019-05-29T02:19:09.817Z,850.35
2019-05-29T02:20:09.806Z,850.29
2019-05-29T02:21:09.932Z,850.32
2019-05-29T02:22:09.787Z,850.30
2019-05-29T02:23:09.777Z,850.32
2019-05-29T02:24:09.807Z,850.36
2019-05-29T02:25:09.777Z,850.35
2019-05-29T02:26:09.768Z,850.36
2019-05-29T02:27:09.736Z,850.36
2019-05-29T02:28:09.723Z,850.36
2019-05-29T02:29:09.765Z,850.36
2019-05-29T02:30:10.017Z,850.35
2019-05-29T02:31:09.699Z,850.41
2019-05-29T02:32:09.704Z,850.39
2019-05-29T02:33:09.674Z,850.41
2019-05-29T02:34:09.660Z,850.44
2019-05-29T02:35:09.653Z,850.46
2019-05-29T02:36:09.673Z,850.44
2019-05-29T02:37:09.627Z,850.52
2019-05-29T02:38:09.612Z,850.50
2019-05-29T02:39:09.611Z,850.49
2019-05-29T02:40:09.602Z,850.49
2019-05-29T02:41:09.602Z,850.48
2019-05-29T02:42:09.611Z,850.46
2019-05-29T02:43:09.655Z,850.47
2019-05-29T02:44:09.542Z,850.51
2019-05-29T02:45:09.545Z,850.49
2019-05-29T02:46:09.529Z,850.49
2019-05-29T02:47:09.513Z,850.48
2019-05-29T02:48:09.616Z,850.50
2019-05-29T02:49:09.499Z,850.57
2019-05-29T02:50:09.490Z,850.49
2019-05-29T02:51:12.201Z,850.55
2019-05-29T02:52:09.490Z,850.56
2019-05-29T02:53:09.456Z,850.52
2019-05-29T02:54:09.487Z,850.54
2019-05-29T02:55:09.431Z,850.54
2019-05-29T02:56:09.426Z,850.55
2019-05-29T02:57:09.417Z,850.60
2019-05-29T02:58:09.395Z,850.58
2019-05-29T02:59:09.384Z,850.61
2019-05-29T03:00:09.417Z,850.61
2019-05-29T03:01:09.390Z,850.57
2019-05-29T03:02:09.357Z,850.61
2019-05-29T03:03:09.344Z,850.69
2019-05-29T03:04:09.345Z,850.70
2019-05-29T03:05:09.330Z,850.64
2019-05-29T03:06:09.343Z,850.69
2019-05-29T03:07:09.310Z,850.66
2019-05-29T03:08:09.283Z,850.70
2019-05-29T03:09:09.273Z,850.70
2019-05-29T03:10:09.266Z,850.75
2019-05-29T03:11:09.252Z,850.74
2019-05-29T03:12:09.290Z,850.72
2019-05-29T03:13:09.273Z,850.70
2019-05-29T03:14:09.220Z,850.71
2019-05-29T03:15:09.263Z,850.71
2019-05-29T03:16:12.128Z,850.76
2019-05-29T03:17:09.191Z,850.77
2019-05-29T03:18:09.186Z,850.79
2019-05-29T03:19:09.163Z,850.78
2019-05-29T03:20:09.164Z,850.79
2019-05-29T03:21:09.178Z,850.80
2019-05-29T03:22:09.131Z,850.80
2019-05-29T03:23:09.238Z,850.84
2019-05-29T03:24:09.111Z,850.82
2019-05-29T03:25:09.110Z,850.82
2019-05-29T03:26:09.141Z,850.85
2019-05-29T03:27:09.087Z,850.81
2019-05-29T03:28:09.078Z,850.78
2019-05-29T03:29:09.088Z,850.78
2019-05-29T03:30:09.046Z,850.81
2019-05-29T03:31:09.216Z,850.83
2019-05-29T03:32:13.684Z,850.84
2019-05-29T03:33:10.069Z,850.85
2019-05-29T03:34:09.005Z,850.86
2019-05-29T03:35:08.997Z,850.85
2019-05-29T03:36:08.997Z,850.86
2019-05-29T03:37:08.974Z,850.90
2019-05-29T03:38:08.965Z,850.88
2019-05-29T03:39:08.986Z,850.91
2019-05-29T03:40:08.957Z,850.90
2019-05-29T03:41:08.924Z,850.89
2019-05-29T03:42:08.936Z,850.89
2019-05-29T03:43:08.912Z,850.92
2019-05-29T03:44:10.438Z,850.92
2019-05-29T03:45:08.906Z,850.91
2019-05-29T03:46:26.429Z,850.90
2019-05-29T03:47:09.860Z,850.95
2019-05-29T03:48:08.943Z,850.93
2019-05-29T03:49:08.859Z,850.93
2019-05-29T03:50:08.830Z,850.95
2019-05-29T03:51:08.831Z,850.98
2019-05-29T03:52:08.804Z,850.98
2019-05-29T03:53:08.831Z,850.99
2019-05-29T03:54:08.784Z,850.96
2019-05-29T03:55:08.815Z,850.99
2019-05-29T03:56:08.764Z,850.98
2019-05-29T03:57:08.757Z,851.00
2019-05-29T03:58:08.739Z,851.05
2019-05-29T03:59:08.794Z,851.00
2019-05-29T04:00:08.711Z,851.03
2019-05-29T04:01:08.709Z,851.02
2019-05-29T04:02:09.697Z,851.01
2019-05-29T04:03:08.679Z,851.02
2019-05-29T04:04:08.674Z,851.05
2019-05-29T04:05:08.693Z,851.07
2019-05-29T04:06:09.467Z,851.09
2019-05-29T04:07:08.647Z,851.11
2019-05-29T04:08:08.666Z,851.08
2019-05-29T04:09:08.624Z,851.08
2019-05-29T04:10:08.604Z,851.08
2019-05-29T04:11:08.663Z,851.11
2019-05-29T04:12:08.607Z,851.08
2019-05-29T04:13:08.574Z,851.13
2019-05-29T04:14:08.611Z,851.07
2019-05-29T04:15:09.274Z,851.13
2019-05-29T04:16:08.625Z,851.16
2019-05-29T04:17:09.062Z,851.12
2019-05-29T04:18:08.523Z,851.13
2019-05-29T04:19:08.600Z,851.15
2019-05-29T04:20:08.534Z,851.21
2019-05-29T04:21:08.510Z,851.20
2019-05-29T04:22:08.480Z,851.19
2019-05-29T04:23:08.508Z,851.20
2019-05-29T04:24:08.450Z,851.21
2019-05-29T04:25:08.470Z,851.24
2019-05-29T04:26:08.471Z,851.20
2019-05-29T04:27:08.421Z,851.21
2019-05-29T04:28:08.479Z,851.19
2019-05-29T04:29:08.398Z,851.24
2019-05-29T04:30:08.394Z,851.19
2019-05-29T04:31:08.379Z,851.16
2019-05-29T04:32:08.849Z,851.20
2019-05-29T04:33:08.379Z,851.25
2019-05-29T04:34:08.356Z,851.22
2019-05-29T04:35:09.014Z,851.25
2019-05-29T04:36:08.331Z,851.20
2019-05-29T04:37:08.322Z,851.24
2019-05-29T04:38:08.415Z,851.27
2019-05-29T04:39:08.296Z,851.29
2019-05-29T04:40:08.396Z,851.29
2019-05-29T04:41:08.264Z,851.32
2019-05-29T04:42:08.273Z,851.33
2019-05-29T04:43:08.304Z,851.29
2019-05-29T04:44:08.277Z,851.29
2019-05-29T04:45:08.229Z,851.34
2019-05-29T04:46:08.219Z,851.38
2019-05-29T04:47:11.604Z,851.40
2019-05-29T04:48:08.190Z,851.40
2019-05-29T04:49:08.219Z,851.38
2019-05-29T04:50:08.173Z,851.41
2019-05-29T04:51:09.047Z,851.43
2019-05-29T04:52:08.150Z,851.40
2019-05-29T04:53:08.170Z,851.43
2019-05-29T04:54:08.125Z,851.45
2019-05-29T04:55:08.119Z,851.43
2019-05-29T04:56:08.101Z,851.47
2019-05-29T04:57:08.849Z,851.44
2019-05-29T04:58:08.082Z,851.48
2019-05-29T04:59:08.071Z,851.46
2019-05-29T05:00:08.063Z,851.50
2019-05-29T05:01:08.049Z,851.51
2019-05-29T05:02:08.078Z,851.55
2019-05-29T05:03:08.040Z,851.52
2019-05-29T05:04:08.076Z,851.53
2019-05-29T05:05:08.023Z,851.56
2019-05-29T05:06:08.025Z,851.56
2019-05-29T05:07:07.984Z,851.58
2019-05-29T05:09:56.639Z,851.58
2019-05-29T05:10:57.357Z,851.62
2019-05-29T05:12:01.687Z,851.54
2019-05-29T05:12:56.685Z,851.59
2019-05-29T05:14:01.447Z,851.57
2019-05-29T05:14:56.530Z,851.55
2019-05-29T05:16:02.463Z,851.53
2019-05-29T05:16:55.447Z,851.58
2019-05-29T05:17:55.624Z,851.60
2019-05-29T05:18:56.512Z,851.57
2019-05-29T05:19:59.369Z,851.62
2019-05-29T05:20:55.475Z,851.62
2019-05-29T05:21:55.269Z,851.63
2019-05-29T05:22:55.269Z,851.64
2019-05-29T05:23:55.273Z,851.65
2019-05-29T05:24:55.229Z,851.69
2019-05-29T05:25:55.219Z,851.66
2019-05-29T05:26:55.349Z,851.70
2019-05-29T05:27:55.219Z,851.69
2019-05-29T05:28:55.235Z,851.73
2019-05-29T05:29:55.211Z,851.68
2019-05-29T05:30:55.200Z,851.71
2019-05-29T05:31:55.195Z,851.72
2019-05-29T05:32:55.147Z,851.75
2019-05-29T05:33:55.136Z,851.74
2019-05-29T05:34:55.146Z,851.71
2019-05-29T05:35:55.132Z,851.78
2019-05-29T05:36:55.153Z,851.79
2019-05-29T05:37:55.114Z,851.80
2019-05-29T05:38:55.087Z,851.79
2019-05-29T05:39:55.083Z,851.81
2019-05-29T05:40:55.072Z,851.83
2019-05-29T05:41:55.044Z,851.81
2019-05-29T05:42:55.074Z,851.80
2019-05-29T05:43:55.033Z,851.88
2019-05-29T05:44:55.012Z,851.90
2019-05-29T05:45:55.003Z,851.89
2019-05-29T05:46:55.001Z,851.92
2019-05-29T05:47:57.792Z,851.94
2019-05-29T05:48:55.011Z,851.92
2019-05-29T05:49:54.962Z,851.91
2019-05-29T05:50:54.951Z,851.93
2019-05-29T05:51:54.948Z,851.95
2019-05-29T05:52:54.955Z,851.91
2019-05-29T05:53:54.919Z,851.95
2019-05-29T05:54:55.238Z,851.96
2019-05-29T05:55:54.899Z,851.96
2019-05-29T05:56:54.886Z,851.98
2019-05-29T05:57:55.008Z,852.00
2019-05-29T05:58:54.867Z,851.97
2019-05-29T05:59:54.858Z,852.03
2019-05-29T06:00:54.868Z,851.98
2019-05-29T06:01:54.830Z,852.02
2019-05-29T06:02:54.829Z,851.95
2019-05-29T06:03:54.858Z,852.00
2019-05-29T06:04:54.795Z,851.99
2019-05-29T06:05:54.793Z,852.04
2019-05-29T06:06:54.788Z,852.06
2019-05-29T06:07:54.775Z,852.03
2019-05-29T06:08:54.763Z,852.09
2019-05-29T06:09:54.784Z,852.03
2019-05-29T06:10:54.890Z,852.09
2019-05-29T06:11:54.728Z,852.08
2019-05-29T06:12:54.713Z,852.08
2019-05-29T06:13:54.727Z,852.09
2019-05-29T06:14:54.695Z,852.09
2019-05-29T06:15:54.723Z,852.13
2019-05-29T06:16:54.753Z,852.12
2019-05-29T06:18:16.991Z,852.07
2019-05-29T06:18:55.649Z,852.10
2019-05-29T06:19:54.643Z,852.08
2019-05-29T06:20:54.651Z,852.13
2019-05-29T06:21:54.661Z,852.11
2019-05-29T06:22:54.611Z,852.12
2019-05-29T06:23:54.623Z,852.18
2019-05-29T06:24:54.602Z,852.15
2019-05-29T06:25:54.574Z,852.15
2019-05-29T06:26:54.562Z,852.16
2019-05-29T06:27:54.664Z,852.13
2019-05-29T06:28:54.548Z,852.18
2019-05-29T06:29:54.557Z,852.18
2019-05-29T06:30:54.525Z,852.17
2019-05-29T06:31:54.562Z,852.16
2019-05-29T06:32:54.497Z,852.11
2019-05-29T06:33:54.502Z,852.17
2019-05-29T06:34:54.481Z,852.16
2019-05-29T06:35:54.480Z,852.14
2019-05-29T06:36:54.457Z,852.13
2019-05-29T06:37:54.494Z,852.19
2019-05-29T06:38:54.479Z,852.17
2019-05-29T06:39:54.425Z,852.17
2019-05-29T06:40:54.416Z,852.18
2019-05-29T06:41:54.565Z,852.21
2019-05-29T06:42:54.394Z,852.18
2019-05-29T06:43:54.430Z,852.20
2019-05-29T06:44:54.418Z,852.23
2019-05-29T06:45:54.361Z,852.25
2019-05-29T06:46:54.404Z,852.26
2019-05-29T06:47:54.420Z,852.24
2019-05-29T06:49:00.244Z,852.30
2019-05-29T06:50:01.491Z,852.31
2019-05-29T06:50:57.322Z,852.32
2019-05-29T06:51:54.336Z,852.34
2019-05-29T06:52:54.285Z,852.37
2019-05-29T06:53:54.281Z,852.34
2019-05-29T06:54:54.264Z,852.38
2019-05-29T06:55:55.766Z,852.38
2019-05-29T06:56:54.287Z,852.45
2019-05-29T06:57:54.240Z,852.43
2019-05-29T06:58:54.223Z,852.41
2019-05-29T06:59:54.211Z,852.48
2019-05-29T07:00:54.223Z,852.38
2019-05-29T07:01:54.182Z,852.38
2019-05-29T07:02:54.211Z,852.39
2019-05-29T07:04:10.513Z,852.44
2019-05-29T07:04:55.151Z,852.47
2019-05-29T07:05:54.156Z,852.49
2019-05-29T07:06:54.200Z,852.47
2019-05-29T07:07:54.140Z,852.54
2019-05-29T07:08:54.116Z,852.52
2019-05-29T07:09:54.110Z,852.56
2019-05-29T07:10:54.136Z,852.53
2019-05-29T07:11:54.087Z,852.56
2019-05-29T07:12:54.186Z,852.51
2019-05-29T07:13:54.077Z,852.51
2019-05-29T07:14:54.057Z,852.56
2019-05-29T07:15:54.118Z,852.60
2019-05-29T07:16:56.327Z,852.53
2019-05-29T07:17:54.018Z,852.58
2019-05-29T07:19:24.114Z,852.62
2019-05-29T07:20:03.249Z,852.61
2019-05-29T07:20:54.999Z,852.62
2019-05-29T07:21:53.977Z,852.59
2019-05-29T07:22:53.966Z,852.63
2019-05-29T07:23:53.972Z,852.66
2019-05-29T07:24:53.975Z,852.64
2019-05-29T07:25:54.005Z,852.64
2019-05-29T07:26:53.924Z,852.65
2019-05-29T07:27:53.916Z,852.67
2019-05-29T07:29:06.372Z,852.66
2019-05-29T07:29:54.903Z,852.70
2019-05-29T07:31:01.818Z,852.70
2019-05-29T07:31:55.001Z,852.66
2019-05-29T07:32:58.289Z,852.70
2019-05-29T07:33:54.881Z,852.72
2019-05-29T07:35:03.359Z,852.72
2019-05-29T07:35:54.819Z,852.74
2019-05-29T07:36:53.810Z,852.72
2019-05-29T07:37:53.810Z,852.74
2019-05-29T07:39:02.657Z,852.73
2019-05-29T07:39:54.843Z,852.79
2019-05-29T07:40:53.779Z,852.70
2019-05-29T07:41:53.757Z,852.71
2019-05-29T07:42:56.780Z,852.73
2019-05-29T07:43:53.817Z,852.73
2019-05-29T07:44:53.750Z,852.75
2019-05-29T07:45:53.766Z,852.73
2019-05-29T07:46:53.744Z,852.81
2019-05-29T07:47:53.695Z,852.76
2019-05-29T07:48:53.690Z,852.77
2019-05-29T07:49:53.685Z,852.79
2019-05-29T07:51:06.378Z,852.82
2019-05-29T07:51:54.685Z,852.80
2019-05-29T07:52:53.690Z,852.83
2019-05-29T07:53:53.638Z,852.82
2019-05-29T07:54:53.665Z,852.86
2019-05-29T07:55:53.615Z,852.87
2019-05-29T07:56:53.676Z,852.86
2019-05-29T07:57:53.595Z,852.88
2019-05-29T07:59:02.506Z,852.84
2019-05-29T07:59:54.584Z,852.89
2019-05-29T08:01:12.408Z,852.95
2019-05-29T08:01:54.583Z,852.90
2019-05-29T08:02:53.542Z,852.94
2019-05-29T08:03:53.586Z,852.90
2019-05-29T08:04:53.513Z,852.90
2019-05-29T08:05:53.598Z,852.91
2019-05-29T08:06:54.632Z,852.93
2019-05-29T08:07:53.480Z,852.89
2019-05-29T08:08:53.578Z,852.96
2019-05-29T08:09:53.501Z,852.95
2019-05-29T08:10:53.449Z,852.95
2019-05-29T08:11:53.852Z,852.95
2019-05-29T08:12:55.794Z,852.96
2019-05-29T08:13:53.420Z,853.00
2019-05-29T08:14:53.466Z,853.03
2019-05-29T08:16:02.322Z,853.03
2019-05-29T08:16:54.428Z,853.02
2019-05-29T08:17:53.388Z,853.02
2019-05-29T08:18:53.424Z,853.04
2019-05-29T08:20:06.152Z,853.02
2019-05-29T08:20:54.337Z,852.99
2019-05-29T08:21:53.331Z,853.05
2019-05-29T08:22:53.355Z,853.02
2019-05-29T08:23:53.312Z,853.04
2019-05-29T08:24:53.297Z,853.06
2019-05-29T08:25:53.287Z,853.02
2019-05-29T08:26:53.317Z,853.04
2019-05-29T08:27:53.265Z,853.04
2019-05-29T08:28:53.264Z,853.08
2019-05-29T08:29:53.245Z,853.07
2019-05-29T08:30:56.354Z,853.10
2019-05-29T08:31:53.222Z,853.12
2019-05-29T08:32:53.291Z,853.11
2019-05-29T08:33:53.211Z,853.03
2019-05-29T08:34:53.226Z,853.12
2019-05-29T08:35:59.821Z,853.09
2019-05-29T08:37:05.930Z,853.09
2019-05-29T08:37:54.192Z,853.08
2019-05-29T08:38:53.149Z,853.05
2019-05-29T08:39:53.161Z,853.09
2019-05-29T08:40:53.121Z,853.08
2019-05-29T08:42:17.687Z,853.08
2019-05-29T08:42:54.140Z,853.05
2019-05-29T08:43:53.132Z,853.08
2019-05-29T08:44:53.080Z,853.05
2019-05-29T08:45:53.111Z,853.09
2019-05-29T08:47:09.006Z,853.11
2019-05-29T08:47:54.047Z,853.14
2019-05-29T08:48:53.099Z,853.09
2019-05-29T08:49:54.643Z,853.18
2019-05-29T08:50:53.017Z,853.13
2019-05-29T08:52:08.248Z,853.18
2019-05-29T08:52:53.997Z,853.20
2019-05-29T08:53:54.754Z,853.21
2019-05-29T08:54:53.017Z,853.20
2019-05-29T08:55:52.977Z,853.25
2019-05-29T08:56:52.949Z,853.20
2019-05-29T08:57:52.937Z,853.25
2019-05-29T08:58:52.927Z,853.26
2019-05-29T08:59:52.925Z,853.24
2019-05-29T09:00:55.229Z,853.20
2019-05-29T09:01:55.345Z,853.27
2019-05-29T09:02:52.927Z,853.26
2019-05-29T09:03:53.349Z,853.26
2019-05-29T09:04:54.698Z,853.30
2019-05-29T09:06:08.157Z,853.28
2019-05-29T09:06:53.879Z,853.29
2019-05-29T09:07:54.355Z,853.33
2019-05-29T09:08:54.774Z,853.32
2019-05-29T09:09:53.341Z,853.33
2019-05-29T09:10:54.303Z,853.34
2019-05-29T09:11:53.752Z,853.28
2019-05-29T09:13:04.008Z,853.29
2019-05-29T09:13:53.760Z,853.31
2019-05-29T09:14:52.752Z,853.29
2019-05-29T09:15:52.747Z,853.32
2019-05-29T09:16:53.471Z,853.31
2019-05-29T09:17:52.770Z,853.33
2019-05-29T09:18:52.728Z,853.32
2019-05-29T09:19:52.780Z,853.37
2019-05-29T09:21:02.814Z,853.36
2019-05-29T09:21:53.674Z,853.37
2019-05-29T09:22:52.732Z,853.38
2019-05-29T09:23:52.667Z,853.39
2019-05-29T09:24:52.668Z,853.38
2019-05-29T09:25:52.630Z,853.44
2019-05-29T09:26:52.658Z,853.41
2019-05-29T09:27:52.650Z,853.37
2019-05-29T09:28:52.609Z,853.40
2019-05-29T09:29:52.645Z,853.45
2019-05-29T09:30:52.589Z,853.43
2019-05-29T09:31:52.569Z,853.48
2019-05-29T09:32:53.234Z,853.46
2019-05-29T09:33:52.586Z,853.47
2019-05-29T09:34:52.547Z,853.50
2019-05-29T09:35:52.528Z,853.47
2019-05-29T09:36:55.493Z,853.50
2019-05-29T09:37:52.509Z,853.51
2019-05-29T09:38:52.983Z,853.52
2019-05-29T09:39:52.526Z,853.58
2019-05-29T09:40:52.940Z,853.52
2019-05-29T09:41:52.472Z,853.55
2019-05-29T09:42:52.496Z,853.62
2019-05-29T09:43:59.206Z,853.59
2019-05-29T09:44:53.426Z,853.55
2019-05-29T09:45:52.415Z,853.56
2019-05-29T09:46:52.409Z,853.55
2019-05-29T09:47:52.403Z,853.61
2019-05-29T09:48:52.435Z,853.64
2019-05-29T09:49:52.377Z,853.60
2019-05-29T09:50:52.493Z,853.63
2019-05-29T09:51:52.610Z,853.62
2019-05-29T09:52:53.244Z,853.67
2019-05-29T09:53:53.901Z,853.63
2019-05-29T09:54:53.450Z,853.67
2019-05-29T09:55:53.635Z,853.64
2019-05-29T09:56:54.238Z,853.65
2019-05-29T09:57:53.776Z,853.66
2019-05-29T09:58:53.713Z,853.66
2019-05-29T09:59:53.756Z,853.71
2019-05-29T10:01:09.888Z,853.72
2019-05-29T10:01:54.729Z,853.73
2019-05-29T10:02:52.802Z,853.73
2019-05-29T10:03:54.787Z,853.73
2019-05-29T10:04:54.308Z,853.77
2019-05-29T10:05:54.067Z,853.80
2019-05-29T10:06:53.183Z,853.81
2019-05-29T10:07:53.115Z,853.84
2019-05-29T10:08:54.100Z,853.82
2019-05-29T10:09:54.766Z,853.86
2019-05-29T10:10:57.722Z,853.83
2019-05-29T10:11:53.891Z,853.84
2019-05-29T10:12:52.188Z,853.79
2019-05-29T10:13:52.107Z,853.84
2019-05-29T10:14:52.152Z,853.86
2019-05-29T10:15:52.096Z,853.86
2019-05-29T10:16:52.089Z,853.89
2019-05-29T10:17:52.130Z,853.86
2019-05-29T10:18:52.063Z,853.87
2019-05-29T10:19:52.050Z,853.89
2019-05-29T10:20:52.070Z,853.91
2019-05-29T10:21:52.032Z,853.89
2019-05-29T10:22:52.014Z,853.95
2019-05-29T10:23:52.046Z,853.97
2019-05-29T10:24:52.002Z,853.96
2019-05-29T10:25:51.984Z,853.98
2019-05-29T10:26:51.972Z,854.03
2019-05-29T10:27:52.076Z,853.99
2019-05-29T10:29:05.060Z,853.97
2019-05-29T10:29:54.240Z,853.97
2019-05-29T10:30:52.764Z,853.97
2019-05-29T10:31:53.449Z,853.95
2019-05-29T10:32:52.955Z,854.05
2019-05-29T10:33:52.411Z,854.04
2019-05-29T10:34:52.706Z,854.01
2019-05-29T10:35:55.239Z,854.06
2019-05-29T10:36:54.371Z,854.10
2019-05-29T10:37:53.022Z,854.07
2019-05-29T10:38:52.709Z,854.04
2019-05-29T10:39:52.987Z,854.07
2019-05-29T10:41:05.304Z,854.06
2019-05-29T10:41:53.082Z,854.05
2019-05-29T10:42:53.144Z,854.07
2019-05-29T10:43:53.269Z,854.06
2019-05-29T10:44:51.810Z,854.09
2019-05-29T10:45:52.073Z,854.12
2019-05-29T10:46:54.076Z,854.13
2019-05-29T10:47:52.341Z,854.10
2019-05-29T10:48:54.246Z,854.09
2019-05-29T10:49:51.848Z,854.14
2019-05-29T10:50:53.572Z,854.13
2019-05-29T10:52:05.721Z,854.17
2019-05-29T10:52:52.684Z,854.19
2019-05-29T10:53:53.051Z,854.19
2019-05-29T10:54:52.451Z,854.18
2019-05-29T10:55:52.672Z,854.17
2019-05-29T10:56:52.932Z,854.16
2019-05-29T10:57:53.064Z,854.16
2019-05-29T10:58:56.194Z,854.18
2019-05-29T10:59:52.905Z,854.20
2019-05-29T11:00:51.614Z,854.23
2019-05-29T11:01:51.869Z,854.20
2019-05-29T11:02:53.554Z,854.20
2019-05-29T11:03:52.319Z,854.28
2019-05-29T11:04:54.989Z,854.27
2019-05-29T11:05:53.758Z,854.30
2019-05-29T11:06:52.483Z,854.27
2019-05-29T11:07:51.908Z,854.29
2019-05-29T11:08:52.020Z,854.23
2019-05-29T11:09:52.192Z,854.19
2019-05-29T11:10:52.098Z,854.21
2019-05-29T11:11:53.272Z,854.19
2019-05-29T11:12:52.636Z,854.23
2019-05-29T11:13:52.768Z,854.17
2019-05-29T11:14:52.780Z,854.21
2019-05-29T11:15:52.751Z,854.20
2019-05-29T11:16:51.420Z,854.24
2019-05-29T11:17:51.581Z,854.23
2019-05-29T11:18:51.407Z,854.26
2019-05-29T11:19:51.397Z,854.31
2019-05-29T11:20:51.481Z,854.26
2019-05-29T11:21:51.772Z,854.29
2019-05-29T11:22:51.693Z,854.29
2019-05-29T11:23:51.856Z,854.30
2019-05-29T11:24:52.363Z,854.35
2019-05-29T11:25:52.055Z,854.35
2019-05-29T11:26:52.518Z,854.34
2019-05-29T11:27:53.044Z,854.37
2019-05-29T11:28:52.391Z,854.40
2019-05-29T11:29:53.107Z,854.44
2019-05-29T11:30:52.285Z,854.36
2019-05-29T11:31:51.485Z,854.36
2019-05-29T11:32:53.187Z,854.35
2019-05-29T11:33:51.242Z,854.36
2019-05-29T11:34:52.328Z,854.34
2019-05-29T11:36:00.947Z,854.42
2019-05-29T11:36:52.203Z,854.35
2019-05-29T11:37:52.470Z,854.41
2019-05-29T11:38:52.443Z,854.40
2019-05-29T11:39:52.436Z,854.38
2019-05-29T11:41:05.280Z,854.38
2019-05-29T11:41:52.706Z,854.38
2019-05-29T11:42:51.175Z,854.41
2019-05-29T11:43:51.148Z,854.41
2019-05-29T11:44:51.120Z,854.42
2019-05-29T11:45:51.281Z,854.52
2019-05-29T11:46:52.132Z,854.44
2019-05-29T11:47:51.608Z,854.51
2019-05-29T11:48:51.190Z,854.50
2019-05-29T11:49:51.073Z,854.52
2019-05-29T11:50:52.066Z,854.53
2019-05-29T11:51:51.626Z,854.58
2019-05-29T11:52:52.240Z,854.56
2019-05-29T11:53:51.488Z,854.53
2019-05-29T11:54:55.589Z,854.56
2019-05-29T11:55:52.473Z,854.59
2019-05-29T11:56:52.277Z,854.54
2019-05-29T11:57:51.814Z,854.55
2019-05-29T11:58:51.097Z,854.57
2019-05-29T11:59:51.822Z,854.56
2019-05-29T12:00:50.956Z,854.56
2019-05-29T12:01:52.607Z,854.57
2019-05-29T12:02:51.536Z,854.61
2019-05-29T12:04:13.143Z,854.60
2019-05-29T12:04:53.013Z,854.60
2019-05-29T12:05:51.261Z,854.59
2019-05-29T12:06:51.194Z,854.54
2019-05-29T12:07:51.549Z,854.59
2019-05-29T12:08:51.433Z,854.55
2019-05-29T12:09:51.334Z,854.61
2019-05-29T12:10:51.279Z,854.65
2019-05-29T12:11:51.756Z,854.69
2019-05-29T12:12:51.385Z,854.66
2019-05-29T12:13:51.721Z,854.73
2019-05-29T12:15:00.647Z,854.72
2019-05-29T12:15:51.811Z,854.64
2019-05-29T12:16:51.718Z,854.62
2019-05-29T12:18:05.683Z,854.63
2019-05-29T12:18:51.753Z,854.61
2019-05-29T12:19:51.838Z,854.61
2019-05-29T12:20:52.062Z,854.63
2019-05-29T12:21:52.226Z,854.61
2019-05-29T12:23:13.279Z,854.58
2019-05-29T12:23:52.001Z,854.58
2019-05-29T12:24:50.710Z,854.59
2019-05-29T12:26:10.323Z,854.60
2019-05-29T12:26:52.390Z,854.62
2019-05-29T12:27:50.659Z,854.61
2019-05-29T12:28:50.683Z,854.59
2019-05-29T12:29:50.667Z,854.54